createdAt,value
2022-11-19T00:01:07.969Z,8.28
2022-11-19T00:06:12.854Z,8.08
2022-11-19T00:11:38.763Z,8.24
2022-11-19T00:16:42.007Z,8.12
2022-11-19T00:21:44.705Z,8.09
2022-11-19T00:26:48.735Z,8.15
2022-11-19T00:31:51.784Z,8.06
2022-11-19T00:36:54.323Z,8.03
2022-11-19T00:41:58.209Z,7.67
2022-11-19T00:47:01.192Z,7.97
2022-11-19T00:52:03.938Z,7.94
2022-11-19T00:57:09.580Z,7.86
2022-11-19T01:02:12.237Z,7.98
2022-11-19T01:07:14.975Z,7.95
2022-11-19T01:12:18.961Z,7.72
2022-11-19T01:17:21.599Z,7.71
2022-11-19T01:22:24.147Z,7.64
2022-11-19T01:27:28.004Z,7.34
2022-11-19T01:32:31.029Z,7.32
2022-11-19T01:37:33.624Z,7.29
2022-11-19T01:42:53.812Z,7.31
2022-11-19T01:47:59.574Z,7.13
2022-11-19T01:53:02.742Z,7.16
2022-11-19T01:58:08.445Z,7.41
2022-11-19T02:03:12.682Z,7.47
2022-11-19T02:08:40.957Z,7.39
2022-11-19T02:13:51.729Z,7.11
2022-11-19T02:19:01.291Z,7.15
2022-11-19T02:24:43.004Z,7.09
2022-11-19T02:30:16.423Z,7.08
2022-11-19T02:35:27.786Z,7.10
2022-11-19T02:40:35.025Z,7.09
2022-11-19T02:45:44.136Z,6.77
2022-11-19T02:50:50.226Z,6.99
2022-11-19T02:56:06.933Z,6.95
2022-11-19T03:01:28.761Z,6.04
2022-11-19T03:06:32.552Z,6.85
2022-11-19T03:11:35.526Z,6.95
2022-11-19T03:16:44.678Z,6.56
2022-11-19T03:21:53.926Z,6.85
2022-11-19T03:27:01.755Z,6.90
2022-11-19T03:32:10.867Z,6.84
2022-11-19T03:37:18.927Z,6.93
2022-11-19T03:42:23.539Z,6.97
2022-11-19T03:47:32.805Z,6.78
2022-11-19T03:52:35.373Z,6.61
2022-11-19T03:57:38.150Z,7.06
2022-11-19T04:02:42.071Z,6.71
2022-11-19T04:07:44.595Z,6.75
2022-11-19T04:12:47.167Z,6.78
2022-11-19T04:17:51.209Z,6.65
2022-11-19T04:22:53.766Z,6.56
2022-11-19T04:27:56.500Z,6.58
2022-11-19T04:33:00.408Z,6.54
2022-11-19T04:38:02.918Z,6.42
2022-11-19T04:43:05.740Z,6.56
2022-11-19T04:48:10.030Z,6.51
2022-11-19T04:53:12.626Z,6.34
2022-11-19T04:58:15.379Z,6.21
2022-11-19T05:03:19.302Z,6.28
2022-11-19T05:08:22.303Z,6.09
2022-11-19T05:13:24.890Z,6.40
2022-11-19T05:18:28.759Z,6.38
2022-11-19T05:23:31.271Z,6.15
2022-11-19T05:28:39.114Z,6.38
2022-11-19T05:33:43.727Z,6.26
2022-11-19T05:38:46.261Z,6.24
2022-11-19T05:43:48.893Z,6.22
2022-11-19T05:48:53.172Z,6.17
2022-11-19T05:53:55.715Z,6.22
2022-11-19T05:58:58.253Z,6.06
2022-11-19T06:04:02.119Z,6.32
2022-11-19T06:09:05.097Z,6.21
2022-11-19T06:14:08.023Z,6.05
2022-11-19T06:19:12.427Z,5.90
2022-11-19T06:24:15.285Z,6.02
2022-11-19T06:29:19.111Z,6.09
2022-11-19T06:34:23.255Z,5.91
2022-11-19T06:39:25.877Z,5.13
2022-11-19T06:44:28.383Z,5.76
2022-11-19T06:49:32.256Z,5.12
2022-11-19T06:54:37.729Z,5.73
2022-11-19T06:59:42.779Z,5.84
2022-11-19T07:04:46.697Z,5.83
2022-11-19T07:09:49.240Z,5.72
2022-11-19T07:14:52.054Z,5.68
2022-11-19T07:19:55.949Z,5.80
2022-11-19T07:24:58.681Z,5.76
2022-11-19T07:30:02.083Z,5.77
2022-11-19T07:35:06.960Z,5.55
2022-11-19T07:40:11.418Z,5.59
2022-11-19T07:45:13.960Z,5.87
2022-11-19T07:50:18.290Z,5.79
2022-11-19T07:55:20.796Z,5.77
2022-11-19T08:00:24.319Z,5.69
2022-11-19T08:05:28.592Z,5.72
2022-11-19T08:10:31.979Z,5.63
2022-11-19T08:15:35.391Z,5.00
2022-11-19T08:20:39.797Z,5.62
2022-11-19T08:25:43.985Z,5.56
2022-11-19T08:30:47.193Z,5.45
2022-11-19T08:35:55.363Z,5.51
2022-11-19T08:41:11.842Z,5.64
2022-11-19T08:46:14.441Z,5.68
2022-11-19T08:51:18.285Z,5.59
2022-11-19T08:56:22.384Z,5.26
2022-11-19T09:01:25.332Z,5.56
2022-11-19T09:06:29.227Z,5.49
2022-11-19T09:11:31.994Z,5.48
2022-11-19T09:16:34.713Z,5.48
2022-11-19T09:21:38.607Z,5.27
2022-11-19T09:26:41.192Z,5.33
2022-11-19T09:31:43.740Z,5.24
2022-11-19T09:36:48.332Z,5.40
2022-11-19T09:41:56.277Z,5.23
2022-11-19T09:47:13.446Z,5.26
2022-11-19T09:52:21.100Z,5.36
2022-11-19T09:57:31.173Z,5.37
2022-11-19T10:02:34.131Z,5.26
2022-11-19T10:07:44.983Z,5.23
2022-11-19T10:13:29.293Z,5.25
2022-11-19T10:18:41.263Z,5.31
2022-11-19T10:23:52.726Z,5.42
2022-11-19T10:28:57.647Z,5.43
2022-11-19T10:34:05.715Z,5.49
2022-11-19T10:39:18.537Z,5.14
2022-11-19T10:44:40.219Z,5.43
2022-11-19T10:49:45.208Z,5.50
2022-11-19T10:54:51.272Z,5.35
2022-11-19T10:59:55.501Z,5.40
2022-11-19T11:05:05.168Z,5.41
2022-11-19T11:10:26.183Z,5.16
2022-11-19T11:15:28.821Z,5.45
2022-11-19T11:20:32.393Z,5.61
2022-11-19T11:25:37.275Z,5.80
2022-11-19T11:30:55.860Z,5.74
2022-11-19T11:36:02.439Z,5.84
2022-11-19T11:46:41.992Z,5.89
2022-11-19T11:51:44.696Z,5.85
2022-11-19T11:56:49.196Z,5.83
2022-11-19T12:01:56.450Z,5.77
2022-11-19T12:07:13.469Z,5.84
2022-11-19T12:12:28.868Z,5.92
2022-11-19T12:17:43.979Z,6.10
2022-11-19T12:22:57.947Z,6.26
2022-11-19T12:28:19.765Z,6.40
2022-11-19T12:33:37.990Z,6.11
2022-11-19T12:38:49.560Z,6.46
2022-11-19T12:43:57.735Z,6.42
2022-11-19T12:49:20.334Z,6.44
2022-11-19T12:54:35.810Z,6.45
2022-11-19T12:59:49.015Z,6.43
2022-11-19T13:04:57.651Z,6.30
2022-11-19T13:10:04.963Z,6.34
2022-11-19T13:15:18.169Z,6.29
2022-11-19T13:20:27.497Z,6.50
2022-11-19T13:25:34.235Z,6.44
2022-11-19T13:30:49.467Z,6.51
2022-11-19T13:35:58.241Z,6.34
2022-11-19T13:41:05.619Z,6.30
2022-11-19T13:51:53.755Z,6.36
2022-11-19T13:56:58.658Z,6.08
2022-11-19T14:02:32.134Z,6.34
2022-11-19T14:08:00.116Z,6.24
2022-11-19T14:13:36.085Z,6.33
2022-11-19T14:19:01.065Z,6.33
2022-11-19T14:24:41.328Z,6.32
2022-11-19T14:29:57.996Z,6.22
2022-11-19T14:35:21.596Z,6.24
2022-11-19T14:40:27.499Z,6.20
2022-11-19T14:45:31.468Z,6.20
2022-11-19T14:50:34.677Z,6.23
2022-11-19T14:55:39.080Z,6.06
2022-11-19T15:00:43.693Z,5.99
2022-11-19T15:05:47.402Z,5.99
2022-11-19T15:11:04.844Z,5.21
2022-11-19T15:16:12.342Z,5.84
2022-11-19T15:21:27.174Z,5.81
2022-11-19T15:26:37.531Z,5.83
2022-11-19T15:31:53.471Z,5.89
2022-11-19T15:36:59.828Z,5.09
2022-11-19T15:42:07.000Z,5.79
2022-11-19T15:47:15.641Z,5.68
2022-11-19T15:52:24.827Z,5.64
2022-11-19T15:57:28.603Z,5.33
2022-11-19T16:02:37.458Z,5.59
2022-11-19T16:07:41.245Z,5.64
2022-11-19T16:13:11.919Z,5.64
2022-11-19T16:18:17.995Z,5.49
2022-11-19T16:23:22.981Z,4.73
2022-11-19T16:28:30.340Z,5.47
2022-11-19T16:33:35.625Z,5.55
2022-11-19T16:38:40.887Z,5.38
2022-11-19T16:43:47.002Z,5.44
2022-11-19T16:55:53.476Z,5.38
2022-11-19T17:00:59.322Z,5.42
2022-11-19T17:06:04.031Z,5.37
2022-11-19T17:11:40.605Z,5.15
2022-11-19T17:16:47.279Z,5.39
2022-11-19T17:21:56.570Z,5.44
2022-11-19T17:27:00.734Z,5.39
2022-11-19T17:32:04.814Z,5.36
2022-11-19T17:37:09.570Z,5.26
2022-11-19T17:42:36.139Z,5.29
2022-11-19T17:47:38.703Z,5.44
2022-11-19T17:52:41.285Z,4.70
2022-11-19T17:57:45.183Z,5.33
2022-11-19T18:02:48.699Z,5.33
2022-11-19T18:07:51.565Z,5.20
2022-11-19T18:12:55.904Z,5.14
2022-11-19T18:17:58.616Z,5.15
2022-11-19T18:23:01.297Z,5.09
2022-11-19T18:28:05.252Z,5.03
2022-11-19T18:33:10.183Z,5.00
2022-11-19T18:38:12.815Z,4.80
2022-11-19T18:43:39.705Z,4.60
2022-11-19T18:48:43.372Z,4.65
2022-11-19T18:53:46.258Z,4.50
2022-11-19T18:58:50.300Z,4.44
2022-11-19T19:03:53.517Z,4.31
2022-11-19T19:08:56.176Z,4.33
2022-11-19T19:14:00.392Z,4.28
2022-11-19T19:19:03.354Z,4.27
2022-11-19T19:24:07.746Z,4.09
2022-11-19T19:29:12.825Z,4.10
2022-11-19T19:34:15.416Z,4.04
2022-11-19T19:39:20.044Z,4.06
2022-11-19T19:44:24.256Z,3.55
2022-11-19T19:49:26.903Z,4.03
2022-11-19T19:54:29.493Z,3.80
2022-11-19T19:59:33.734Z,3.74
2022-11-19T20:04:36.648Z,3.72
2022-11-19T20:09:39.707Z,3.75
2022-11-19T20:14:43.833Z,3.74
2022-11-19T20:19:46.351Z,3.64
2022-11-19T20:24:48.937Z,3.49
2022-11-19T20:29:53.407Z,3.54
2022-11-19T20:34:56.418Z,3.55
2022-11-19T20:39:59.122Z,3.31
2022-11-19T20:45:03.071Z,3.53
2022-11-19T20:50:06.462Z,3.32
2022-11-19T20:55:10.091Z,3.35
2022-11-19T21:00:16.112Z,3.17
2022-11-19T21:05:18.686Z,3.17
2022-11-19T21:10:21.233Z,3.04
2022-11-19T21:15:26.334Z,2.59
2022-11-19T21:20:29.111Z,2.81
2022-11-19T21:25:31.890Z,2.86
2022-11-19T21:30:36.034Z,2.76
2022-11-19T21:35:41.826Z,2.88
2022-11-19T21:40:44.378Z,2.82
2022-11-19T21:45:48.833Z,2.90
2022-11-19T21:50:52.488Z,2.88
2022-11-19T21:55:57.870Z,2.78
2022-11-19T22:01:04.029Z,2.93
2022-11-19T22:06:08.629Z,2.81
2022-11-19T22:11:31.736Z,2.66
2022-11-19T22:16:38.183Z,1.96
2022-11-19T22:21:41.247Z,2.76
2022-11-19T22:26:43.834Z,2.59
2022-11-19T22:31:47.929Z,2.68
2022-11-19T22:36:50.672Z,2.60
2022-11-19T22:41:53.450Z,2.70
2022-11-19T22:46:59.210Z,2.69
2022-11-19T22:52:01.885Z,2.69
2022-11-19T22:57:04.707Z,2.47
2022-11-19T23:02:08.666Z,2.43
2022-11-19T23:07:11.435Z,2.43
2022-11-19T23:12:31.669Z,2.40
2022-11-19T23:17:35.555Z,2.29
2022-11-19T23:22:38.182Z,2.39
2022-11-19T23:27:40.772Z,2.45
2022-11-19T23:32:44.637Z,2.44
2022-11-19T23:37:47.387Z,2.24
2022-11-19T23:42:52.115Z,2.18
2022-11-19T23:47:56.226Z,2.26
2022-11-19T23:52:58.770Z,2.31
2022-11-19T23:58:01.531Z,1.95
